Hana — 2BCV4 — position and weather

sailwx.info

Track history (hours):
 
Tides and Currents Weather Stations Pressure Air Temp Water Temp Dewpoint Dewpoint Depression Visibility Wind Speed Wind Dir Waves Ship Positions

Hana

Last reported at 2016-Sep-19 19:33 UTC. Time now 2016-Sep-24 22:35 UTC.
Position N 43°44' E 007°25'.

Length 43 m; draft 2.7 m.

Type: Pleasure craft. MMSI: 235065022.

Date/timePositionNaut miles runAvg speedWind from/ knotsBaromVisibWave heightAir tempDewpointWater temp
2016-Sep-19 19:33N 43°44' E 007°25'4 1.3
2016-Sep-19 16:32N 43°41' E 007°22'2010.2
2016-Sep-19 14:33N 43°28' E 007°01'5 0.1
2016-Sep-18 01:18N 43°32' E 007°02'0 0.0
2016-Sep-18 00:30N 43°32' E 007°02'0 0.0
2016-Sep-17 13:24N 43°32' E 007°02'0 0.0
2016-Sep-17 12:30N 43°32' E 007°02'0 0.0
2016-Sep-17 10:24N 43°32' E 007°02'0 0.0
2016-Sep-17 09:24N 43°32' E 007°02'0 0.0
2016-Sep-17 08:30N 43°32' E 007°02'0 0.0
2016-Sep-17 07:18N 43°32' E 007°02'0 0.0
2016-Sep-17 05:30N 43°32' E 007°02'0 0.0
2016-Sep-17 04:24N 43°32' E 007°02'0 0.0
2016-Sep-17 00:30N 43°32' E 007°02'0 0.0
2016-Sep-16 17:24N 43°32' E 007°02'1 0.4
2016-Sep-16 15:33N 43°32' E 007°03'0 0.0
2016-Sep-16 12:33N 43°32' E 007°03'0 0.0
2016-Sep-16 09:33N 43°32' E 007°03'0 0.0
2016-Sep-16 07:33N 43°32' E 007°03'0 0.0
2016-Sep-16 03:33N 43°32' E 007°03'0 0.0
2016-Sep-16 02:33N 43°32' E 007°03'0 0.0
2016-Sep-16 00:33N 43°32' E 007°03'0 0.0
2016-Sep-15 22:33N 43°32' E 007°03'0 0.0
2016-Sep-15 21:33N 43°32' E 007°03'0 0.0
2016-Sep-15 20:33N 43°32' E 007°03'0 0.0
2016-Sep-15 18:33N 43°32' E 007°03'19 3.1
2016-Sep-15 12:33N 43°43' E 007°24'  
2016-Sep-12 19:23N 43°44' E 007°26'2211.9
2016-Sep-12 17:33N 43°31' E 007°01'1 0.1
2016-Sep-12 07:33N 43°32' E 007°01'6 6.2
2016-Sep-12 06:33N 43°32' E 007°10'  
Track history (hours):
 
Tides and Currents Weather Stations Pressure Air Temp Water Temp Dewpoint Dewpoint Depression Visibility Wind Speed Wind Dir Waves Ship Positions

Hana

Last reported at 2016-Sep-19 19:33 UTC. Time now 2016-Sep-24 22:35 UTC.
Position N 43°44' E 007°25'.

Length 43 m; draft 2.7 m.

Type: Pleasure craft. MMSI: 235065022.

Date/timePositionNaut miles runAvg speedWind from/ knotsBaromVisibWave heightAir tempDewpointWater temp
2016-Sep-19 19:33N 43°44' E 007°25'4 1.3
2016-Sep-19 16:32N 43°41' E 007°22'2010.2
2016-Sep-19 14:33N 43°28' E 007°01'5 0.1
2016-Sep-18 01:18N 43°32' E 007°02'0 0.0
2016-Sep-18 00:30N 43°32' E 007°02'0 0.0
2016-Sep-17 13:24N 43°32' E 007°02'0 0.0
2016-Sep-17 12:30N 43°32' E 007°02'0 0.0
2016-Sep-17 10:24N 43°32' E 007°02'0 0.0
2016-Sep-17 09:24N 43°32' E 007°02'0 0.0
2016-Sep-17 08:30N 43°32' E 007°02'0 0.0
2016-Sep-17 07:18N 43°32' E 007°02'0 0.0
2016-Sep-17 05:30N 43°32' E 007°02'0 0.0
2016-Sep-17 04:24N 43°32' E 007°02'0 0.0
2016-Sep-17 00:30N 43°32' E 007°02'0 0.0
2016-Sep-16 17:24N 43°32' E 007°02'1 0.4
2016-Sep-16 15:33N 43°32' E 007°03'0 0.0
2016-Sep-16 12:33N 43°32' E 007°03'0 0.0
2016-Sep-16 09:33N 43°32' E 007°03'0 0.0
2016-Sep-16 07:33N 43°32' E 007°03'0 0.0
2016-Sep-16 03:33N 43°32' E 007°03'0 0.0
2016-Sep-16 02:33N 43°32' E 007°03'0 0.0
2016-Sep-16 00:33N 43°32' E 007°03'0 0.0
2016-Sep-15 22:33N 43°32' E 007°03'0 0.0
2016-Sep-15 21:33N 43°32' E 007°03'0 0.0
2016-Sep-15 20:33N 43°32' E 007°03'0 0.0
2016-Sep-15 18:33N 43°32' E 007°03'19 3.1
2016-Sep-15 12:33N 43°43' E 007°24'  
2016-Sep-12 19:23N 43°44' E 007°26'2211.9
2016-Sep-12 17:33N 43°31' E 007°01'1 0.1
2016-Sep-12 07:33N 43°32' E 007°01'6 6.2
2016-Sep-12 06:33N 43°32' E 007°10'  

Dump ship's entire track history